createdAt,value
2018-08-16T00:00:45.924Z,62.24
2018-08-16T00:01:45.954Z,62.34
2018-08-16T00:03:38.898Z,62.63
2018-08-16T00:04:38.896Z,62.63
2018-08-16T00:06:31.845Z,63.47
2018-08-16T00:07:31.844Z,63.40
2018-08-16T00:09:24.760Z,63.08
2018-08-16T00:10:24.790Z,62.98
2018-08-16T00:12:17.725Z,63.76
2018-08-16T00:13:17.738Z,63.47
2018-08-16T00:15:10.646Z,63.95
2018-08-16T00:16:10.681Z,63.66
2018-08-16T00:18:03.616Z,64.43
2018-08-16T00:19:03.620Z,64.24
2018-08-16T00:20:56.553Z,64.69
2018-08-16T00:21:56.568Z,64.92
2018-08-16T00:23:49.646Z,64.59
2018-08-16T00:24:49.664Z,65.27
2018-08-16T00:26:42.591Z,65.37
2018-08-16T00:27:42.592Z,65.47
2018-08-16T00:29:35.511Z,65.85
2018-08-16T00:30:35.533Z,65.56
2018-08-16T00:32:28.469Z,66.30
2018-08-16T00:33:28.480Z,66.05
2018-08-16T00:35:21.390Z,66.49
2018-08-16T00:36:21.415Z,66.97
2018-08-16T00:38:14.353Z,66.78
2018-08-16T00:39:14.361Z,67.17
2018-08-16T00:41:07.277Z,67.27
2018-08-16T00:42:07.302Z,67.07
2018-08-16T00:44:00.238Z,67.71
2018-08-16T00:45:00.247Z,67.65
2018-08-16T00:46:53.182Z,68.10
2018-08-16T00:47:53.189Z,68.10
2018-08-16T00:49:46.376Z,68.39
2018-08-16T00:50:46.134Z,68.87
2018-08-16T00:52:39.063Z,68.59
2018-08-16T00:53:39.073Z,68.77
2018-08-16T00:55:31.981Z,69.16
2018-08-16T00:56:32.013Z,69.16
2018-08-16T00:58:24.942Z,69.93
2018-08-16T00:59:24.957Z,69.64
2018-08-16T01:01:17.864Z,69.45
2018-08-16T01:02:17.896Z,69.45
2018-08-16T01:04:10.838Z,69.45
2018-08-16T01:05:10.835Z,69.55
2018-08-16T01:07:03.778Z,69.45
2018-08-16T01:08:03.782Z,69.45
2018-08-16T01:09:56.694Z,69.74
2018-08-16T01:10:56.717Z,69.84
2018-08-16T01:12:49.654Z,69.74
2018-08-16T01:13:49.663Z,69.93
2018-08-16T01:15:42.576Z,69.64
2018-08-16T01:16:42.604Z,69.64
2018-08-16T01:18:35.537Z,69.93
2018-08-16T01:19:35.541Z,69.93
2018-08-16T01:21:28.460Z,69.55
2018-08-16T01:22:28.486Z,69.74
2018-08-16T01:24:21.422Z,69.74
2018-08-16T01:25:21.480Z,69.84
2018-08-16T01:27:14.362Z,70.13
2018-08-16T01:28:14.393Z,70.42
2018-08-16T01:30:07.305Z,70.13
2018-08-16T01:31:07.363Z,70.42
2018-08-16T01:33:00.264Z,70.67
2018-08-16T01:34:00.274Z,70.76
2018-08-16T01:35:53.364Z,71.44
2018-08-16T01:36:53.393Z,71.15
2018-08-16T01:38:46.325Z,71.34
2018-08-16T01:39:46.336Z,71.92
2018-08-16T01:41:39.241Z,71.54
2018-08-16T01:42:39.276Z,71.34
2018-08-16T01:44:32.200Z,71.73
2018-08-16T01:45:32.204Z,71.60
2018-08-16T01:47:25.149Z,71.70
2018-08-16T01:48:25.143Z,72.08
2018-08-16T01:50:18.089Z,72.56
2018-08-16T01:51:18.093Z,72.27
2018-08-16T01:53:11.054Z,72.56
2018-08-16T01:54:11.040Z,72.66
2018-08-16T01:56:03.948Z,72.75
2018-08-16T01:57:03.978Z,72.56
2018-08-16T01:58:56.911Z,73.05
2018-08-16T01:59:56.910Z,72.95
2018-08-16T02:01:49.830Z,72.95
2018-08-16T02:02:49.856Z,73.05
2018-08-16T02:04:42.786Z,73.39
2018-08-16T02:05:42.796Z,73.58
2018-08-16T02:07:35.704Z,73.49
2018-08-16T02:08:35.734Z,74.36
2018-08-16T02:10:28.676Z,74.36
2018-08-16T02:11:28.679Z,74.84
2018-08-16T02:13:21.689Z,74.26
2018-08-16T02:14:21.612Z,74.74
2018-08-16T02:16:14.526Z,74.55
2018-08-16T02:17:14.552Z,74.36
2018-08-16T02:19:07.488Z,75.13
2018-08-16T02:20:07.497Z,75.32
2018-08-16T02:22:00.406Z,75.28
2018-08-16T02:23:00.431Z,75.32
2018-08-16T02:24:53.363Z,75.48
2018-08-16T02:25:53.366Z,75.28
2018-08-16T02:27:46.283Z,75.76
2018-08-16T02:28:46.309Z,76.06
2018-08-16T02:30:39.239Z,75.67
2018-08-16T02:31:39.242Z,75.86
2018-08-16T02:33:32.211Z,76.15
2018-08-16T02:34:32.187Z,76.44
2018-08-16T02:36:25.100Z,76.44
2018-08-16T02:37:25.125Z,76.25
2018-08-16T02:39:18.060Z,76.63
2018-08-16T02:40:18.064Z,76.73
2018-08-16T02:42:10.976Z,76.59
2018-08-16T02:43:10.998Z,76.50
2018-08-16T02:45:04.932Z,76.50
2018-08-16T02:46:04.935Z,77.26
2018-08-16T02:47:57.847Z,76.69
2018-08-16T02:48:57.870Z,77.26
2018-08-16T02:50:51.054Z,76.98
2018-08-16T02:51:51.050Z,77.26
2018-08-16T02:53:43.982Z,76.88
2018-08-16T02:54:43.985Z,76.88
2018-08-16T02:56:36.896Z,77.56
2018-08-16T02:57:36.921Z,77.36
2018-08-16T02:59:29.853Z,78.03
2018-08-16T03:00:29.856Z,77.94
2018-08-16T03:02:22.774Z,77.56
2018-08-16T03:03:22.800Z,76.88
2018-08-16T03:05:15.738Z,77.17
2018-08-16T03:06:15.824Z,77.46
2018-08-16T03:08:08.648Z,77.75
2018-08-16T03:09:08.669Z,77.84
2018-08-16T03:11:01.603Z,77.56
2018-08-16T03:12:01.606Z,77.42
2018-08-16T03:13:54.539Z,77.75
2018-08-16T03:14:54.541Z,78.28
2018-08-16T03:16:47.454Z,78.28
2018-08-16T03:17:47.474Z,78.09
2018-08-16T03:19:40.411Z,78.00
2018-08-16T03:20:40.411Z,78.00
2018-08-16T03:22:33.323Z,79.25
2018-08-16T03:23:33.346Z,79.15
2018-08-16T03:25:26.279Z,79.53
2018-08-16T03:26:26.307Z,78.86
2018-08-16T03:28:19.194Z,79.30
2018-08-16T03:29:19.244Z,79.21
2018-08-16T03:31:12.154Z,79.60
2018-08-16T03:32:12.164Z,79.73
2018-08-16T03:34:05.084Z,79.79
2018-08-16T03:35:05.086Z,79.69
2018-08-16T03:36:58.016Z,79.88
2018-08-16T03:37:58.040Z,79.50
2018-08-16T03:39:50.971Z,79.60
2018-08-16T03:40:50.972Z,79.88
2018-08-16T03:42:43.884Z,79.88
2018-08-16T03:43:43.909Z,79.40
2018-08-16T03:45:36.855Z,79.30
2018-08-16T03:46:36.851Z,79.79
2018-08-16T03:48:29.762Z,80.17
2018-08-16T03:49:29.783Z,80.36
2018-08-16T03:51:22.716Z,80.17
2018-08-16T03:52:22.726Z,79.98
2018-08-16T03:54:15.654Z,79.88
2018-08-16T03:55:15.655Z,80.27
2018-08-16T03:57:08.568Z,80.17
2018-08-16T03:58:08.587Z,80.36
2018-08-16T04:00:01.523Z,80.84
2018-08-16T04:01:01.525Z,80.65
2018-08-16T04:02:54.467Z,80.65
2018-08-16T04:03:54.498Z,80.65
2018-08-16T04:05:47.440Z,80.65
2018-08-16T04:06:47.423Z,80.75
2018-08-16T04:08:40.336Z,80.84
2018-08-16T04:09:40.356Z,80.27
2018-08-16T04:11:33.287Z,80.84
2018-08-16T04:12:33.289Z,80.75
2018-08-16T04:14:26.218Z,80.75
2018-08-16T04:15:26.223Z,80.46
2018-08-16T04:17:19.134Z,80.27
2018-08-16T04:18:19.155Z,80.36
2018-08-16T04:20:12.101Z,80.51
2018-08-16T04:21:12.090Z,80.36
2018-08-16T04:23:05.007Z,80.75
2018-08-16T04:24:05.026Z,81.28
2018-08-16T04:25:57.957Z,81.13
2018-08-16T04:26:57.958Z,81.09
2018-08-16T04:28:50.870Z,81.19
2018-08-16T04:29:50.892Z,80.94
2018-08-16T04:31:43.822Z,81.38
2018-08-16T04:32:43.823Z,81.19
2018-08-16T04:34:36.773Z,80.84
2018-08-16T04:35:36.763Z,81.86
2018-08-16T04:37:29.678Z,81.67
2018-08-16T04:38:29.697Z,81.71
2018-08-16T04:40:22.631Z,81.32
2018-08-16T04:41:22.633Z,81.23
2018-08-16T04:43:15.545Z,81.38
2018-08-16T04:44:15.598Z,81.38
2018-08-16T04:46:08.501Z,81.42
2018-08-16T04:47:08.504Z,81.61
2018-08-16T04:49:01.414Z,81.52
2018-08-16T04:50:01.438Z,81.61
2018-08-16T04:51:54.369Z,81.32
2018-08-16T04:52:54.371Z,81.52
2018-08-16T04:54:47.283Z,81.13
2018-08-16T04:55:47.309Z,81.52
2018-08-16T04:57:40.237Z,81.71
2018-08-16T04:58:40.240Z,80.84
2018-08-16T05:00:33.171Z,81.52
2018-08-16T05:01:33.176Z,81.13
2018-08-16T05:03:26.087Z,81.04
2018-08-16T05:04:26.113Z,81.23
2018-08-16T05:06:19.044Z,81.13
2018-08-16T05:07:19.046Z,81.04
2018-08-16T05:09:11.961Z,81.27
2018-08-16T05:10:11.980Z,81.42
2018-08-16T05:12:04.916Z,80.98
2018-08-16T05:13:04.915Z,81.07
2018-08-16T05:14:57.966Z,81.07
2018-08-16T05:15:57.991Z,80.69
2018-08-16T05:17:50.924Z,80.30
2018-08-16T05:18:50.927Z,80.35
2018-08-16T05:20:43.839Z,79.77
2018-08-16T05:21:43.897Z,79.86
2018-08-16T05:23:36.796Z,79.38
2018-08-16T05:24:36.798Z,79.28
2018-08-16T05:26:29.735Z,79.28
2018-08-16T05:27:29.742Z,79.58
2018-08-16T05:29:22.650Z,79.00
2018-08-16T05:30:22.673Z,79.38
2018-08-16T05:32:15.609Z,78.75
2018-08-16T05:33:15.618Z,78.65
2018-08-16T05:35:08.526Z,78.27
2018-08-16T05:36:08.551Z,77.98
2018-08-16T05:38:01.483Z,77.40
2018-08-16T05:39:01.486Z,77.40
2018-08-16T05:40:54.401Z,76.86
2018-08-16T05:41:54.424Z,77.15
2018-08-16T05:43:47.358Z,77.06
2018-08-16T05:44:47.365Z,77.06
2018-08-16T05:46:40.277Z,77.15
2018-08-16T05:47:40.305Z,77.15
2018-08-16T05:49:33.233Z,76.23
2018-08-16T05:50:33.236Z,76.23
2018-08-16T05:52:26.180Z,75.36
2018-08-16T05:53:26.181Z,75.74
2018-08-16T05:55:19.098Z,74.97
2018-08-16T05:56:19.118Z,75.26
2018-08-16T05:58:12.052Z,74.33
2018-08-16T05:59:12.060Z,73.53
2018-08-16T06:01:04.973Z,74.58
2018-08-16T06:02:04.999Z,74.58
2018-08-16T06:03:57.931Z,74.88
2018-08-16T06:04:57.940Z,74.40
2018-08-16T06:06:53.251Z,74.24
2018-08-16T06:07:51.857Z,74.24
2018-08-16T06:09:44.822Z,74.14
2018-08-16T06:10:44.909Z,73.41
2018-08-16T06:12:37.726Z,72.58
2018-08-16T06:13:37.758Z,72.03
2018-08-16T06:15:30.772Z,68.59
2018-08-16T06:16:30.698Z,67.88
2018-08-16T06:18:23.634Z,65.59
2018-08-16T06:19:23.640Z,63.79
2018-08-16T06:21:17.564Z,61.49
2018-08-16T06:22:17.592Z,60.65
2018-08-16T06:24:10.545Z,60.39
2018-08-16T06:25:10.540Z,59.55
2018-08-16T06:27:03.459Z,57.44
2018-08-16T06:28:03.492Z,56.79
2018-08-16T06:29:56.429Z,55.63
2018-08-16T06:30:56.440Z,54.68
2018-08-16T06:32:49.388Z,53.74
2018-08-16T06:33:49.389Z,53.83
2018-08-16T06:35:42.339Z,51.92
2018-08-16T06:36:42.342Z,51.55
2018-08-16T06:38:35.288Z,50.51
2018-08-16T06:39:35.297Z,50.12
2018-08-16T06:41:28.223Z,49.76
2018-08-16T06:42:28.251Z,49.56
2018-08-16T06:44:21.199Z,48.78
2018-08-16T06:45:21.214Z,49.00
2018-08-16T06:47:14.136Z,48.51
2018-08-16T06:48:14.167Z,48.22
2018-08-16T06:50:07.123Z,47.92
2018-08-16T06:51:07.122Z,47.75
2018-08-16T06:53:00.053Z,47.17
2018-08-16T06:54:00.081Z,46.97
2018-08-16T06:55:53.038Z,47.17
2018-08-16T06:56:53.041Z,47.17
2018-08-16T06:58:45.996Z,47.80
2018-08-16T06:59:46.001Z,48.49
2018-08-16T07:01:38.931Z,48.78
2018-08-16T07:02:38.961Z,48.88
2018-08-16T07:04:31.915Z,48.10
2018-08-16T07:05:31.922Z,48.02
2018-08-16T07:07:24.852Z,48.41
2018-08-16T07:08:24.886Z,48.19
2018-08-16T07:10:17.836Z,49.05
2018-08-16T07:11:17.883Z,49.05
2018-08-16T07:13:10.773Z,49.51
2018-08-16T07:14:10.808Z,50.46
2018-08-16T07:16:03.752Z,50.92
2018-08-16T07:17:03.767Z,52.19
2018-08-16T07:18:56.708Z,53.06
2018-08-16T07:19:56.717Z,53.45
2018-08-16T07:21:49.643Z,53.42
2018-08-16T07:22:49.673Z,53.22
2018-08-16T07:24:42.665Z,53.61
2018-08-16T07:25:42.625Z,53.97
2018-08-16T07:27:35.551Z,54.17
2018-08-16T07:28:35.578Z,54.27
2018-08-16T07:30:28.523Z,55.33
2018-08-16T07:31:28.536Z,54.36
2018-08-16T07:33:21.454Z,55.11
2018-08-16T07:34:21.486Z,55.11
2018-08-16T07:36:14.427Z,55.08
2018-08-16T07:37:14.435Z,55.96
2018-08-16T07:39:07.374Z,57.03
2018-08-16T07:40:07.423Z,57.22
2018-08-16T07:42:00.303Z,56.35
2018-08-16T07:43:00.332Z,56.64
2018-08-16T07:44:53.282Z,55.60
2018-08-16T07:45:53.495Z,55.60
2018-08-16T07:47:46.203Z,55.21
2018-08-16T07:48:46.234Z,54.92
2018-08-16T07:50:39.183Z,54.56
2018-08-16T07:51:39.388Z,54.75
2018-08-16T07:53:32.113Z,53.78
2018-08-16T07:54:32.137Z,54.56
2018-08-16T07:56:25.083Z,54.56
2018-08-16T07:57:25.086Z,54.07
2018-08-16T07:59:18.030Z,54.07
2018-08-16T08:00:18.037Z,53.88
2018-08-16T08:02:10.962Z,53.59
2018-08-16T08:03:10.987Z,53.20
2018-08-16T08:05:03.942Z,53.78
2018-08-16T08:06:03.938Z,53.59
2018-08-16T08:07:56.859Z,53.88
2018-08-16T08:08:56.986Z,53.88
2018-08-16T08:10:49.843Z,53.88
2018-08-16T08:11:49.863Z,53.88
2018-08-16T08:13:42.768Z,52.81
2018-08-16T08:14:42.796Z,53.56
2018-08-16T08:16:35.746Z,54.70
2018-08-16T08:17:35.750Z,54.60
2018-08-16T08:19:28.720Z,55.47
2018-08-16T08:20:28.703Z,55.44
2018-08-16T08:22:21.627Z,55.64
2018-08-16T08:23:21.654Z,55.38
2018-08-16T08:25:14.653Z,55.38
2018-08-16T08:26:14.606Z,55.18
2018-08-16T08:28:07.528Z,55.47
2018-08-16T08:29:07.555Z,55.28
2018-08-16T08:31:00.503Z,55.21
2018-08-16T08:32:00.507Z,54.92
2018-08-16T08:33:53.427Z,54.27
2018-08-16T08:34:53.495Z,53.78
2018-08-16T08:36:46.397Z,53.22
2018-08-16T08:37:46.403Z,53.13
2018-08-16T08:39:39.344Z,52.55
2018-08-16T08:40:39.351Z,52.06
2018-08-16T08:42:32.276Z,51.87
2018-08-16T08:43:32.324Z,51.31
2018-08-16T08:45:25.241Z,52.64
2018-08-16T08:46:25.253Z,52.64
2018-08-16T08:48:18.171Z,51.28
2018-08-16T08:49:18.197Z,51.57
2018-08-16T08:51:11.140Z,51.70
2018-08-16T08:52:11.148Z,52.76
2018-08-16T08:54:04.073Z,51.43
2018-08-16T08:55:04.100Z,49.97
2018-08-16T08:56:57.083Z,50.75
2018-08-16T08:57:57.051Z,50.46
2018-08-16T08:59:49.990Z,49.58
2018-08-16T09:00:49.999Z,50.46
2018-08-16T09:02:42.922Z,51.23
2018-08-16T09:03:42.950Z,51.23
2018-08-16T09:05:35.895Z,50.24
2018-08-16T09:06:35.903Z,50.31
2018-08-16T09:08:28.829Z,52.25
2018-08-16T09:09:28.890Z,52.25
2018-08-16T09:11:21.803Z,50.63
2018-08-16T09:12:21.810Z,51.21
2018-08-16T09:14:14.729Z,50.70
2018-08-16T09:15:14.764Z,51.97
2018-08-16T09:17:07.714Z,52.64
2018-08-16T09:18:07.710Z,52.19
2018-08-16T09:20:00.637Z,51.21
2018-08-16T09:21:00.666Z,50.53
2018-08-16T09:22:53.613Z,50.53
2018-08-16T09:23:53.656Z,51.28
2018-08-16T09:25:46.546Z,51.09
2018-08-16T09:26:46.572Z,50.43
2018-08-16T09:28:39.520Z,50.34
2018-08-16T09:29:39.528Z,51.11
2018-08-16T09:31:32.508Z,50.26
2018-08-16T09:32:32.486Z,49.07
2018-08-16T09:34:25.408Z,50.75
2018-08-16T09:35:25.439Z,50.07
2018-08-16T09:37:18.378Z,49.97
2018-08-16T09:38:18.385Z,49.97
2018-08-16T09:40:11.310Z,49.68
2018-08-16T09:41:11.339Z,49.90
2018-08-16T09:43:04.281Z,48.80
2018-08-16T09:44:04.289Z,49.12
2018-08-16T09:45:57.210Z,48.83
2018-08-16T09:46:57.238Z,48.73
2018-08-16T09:48:50.182Z,49.02
2018-08-16T09:49:50.191Z,48.85
2018-08-16T09:51:43.191Z,47.39
2018-08-16T09:52:43.140Z,47.66
2018-08-16T09:54:36.085Z,47.78
2018-08-16T09:55:36.095Z,47.39
2018-08-16T09:57:29.044Z,47.39
2018-08-16T09:58:29.049Z,47.10
2018-08-16T10:00:21.974Z,47.22
2018-08-16T10:01:22.001Z,45.95
2018-08-16T10:03:14.951Z,46.54
2018-08-16T10:04:14.957Z,46.15
2018-08-16T10:06:07.884Z,47.20
2018-08-16T10:07:07.909Z,47.13
2018-08-16T10:09:01.360Z,47.59
2018-08-16T10:10:01.365Z,47.00
2018-08-16T10:11:54.290Z,47.10
2018-08-16T10:12:54.321Z,47.20
2018-08-16T10:14:47.268Z,47.32
2018-08-16T10:15:47.276Z,47.32
2018-08-16T10:17:40.220Z,45.95
2018-08-16T10:18:40.230Z,46.15
2018-08-16T10:20:33.153Z,46.05
2018-08-16T10:21:33.181Z,45.20
2018-08-16T10:23:26.136Z,45.28
2018-08-16T10:24:26.136Z,45.98
2018-08-16T10:26:19.057Z,46.05
2018-08-16T10:27:19.089Z,45.59
2018-08-16T10:29:12.037Z,45.59
2018-08-16T10:30:12.037Z,45.86
2018-08-16T10:32:05.099Z,45.95
2018-08-16T10:33:05.131Z,45.68
2018-08-16T10:34:58.078Z,45.88
2018-08-16T10:35:58.085Z,45.10
2018-08-16T10:37:51.033Z,44.90
2018-08-16T10:38:51.039Z,44.90
2018-08-16T10:40:43.974Z,44.90
2018-08-16T10:41:43.997Z,44.90
2018-08-16T10:43:36.949Z,45.61
2018-08-16T10:44:37.032Z,45.22
2018-08-16T10:46:29.882Z,44.54
2018-08-16T10:47:29.911Z,44.44
2018-08-16T10:49:22.856Z,44.34
2018-08-16T10:50:22.864Z,44.44
2018-08-16T10:52:15.790Z,43.98
2018-08-16T10:53:15.819Z,43.29
2018-08-16T10:55:08.769Z,43.68
2018-08-16T10:56:08.774Z,43.95
2018-08-16T10:58:01.897Z,43.57
2018-08-16T10:59:01.907Z,43.37
2018-08-16T11:00:54.830Z,43.37
2018-08-16T11:01:54.861Z,43.37
2018-08-16T11:03:47.811Z,43.19
2018-08-16T11:04:47.817Z,43.59
2018-08-16T11:06:40.744Z,43.00
2018-08-16T11:07:40.801Z,43.02
2018-08-16T11:09:33.724Z,42.44
2018-08-16T11:10:33.756Z,42.34
2018-08-16T11:12:26.652Z,43.32
2018-08-16T11:13:26.686Z,43.51
2018-08-16T11:15:19.646Z,43.10
2018-08-16T11:16:19.645Z,43.78
2018-08-16T11:18:12.586Z,42.90
2018-08-16T11:19:12.593Z,43.57
2018-08-16T11:21:05.523Z,44.24
2018-08-16T11:22:05.552Z,44.54
2018-08-16T11:23:58.577Z,44.73
2018-08-16T11:24:58.552Z,44.76
2018-08-16T11:26:51.434Z,43.57
2018-08-16T11:27:51.463Z,44.15
2018-08-16T11:29:44.415Z,44.13
2018-08-16T11:30:44.418Z,45.00
2018-08-16T11:32:37.343Z,44.81
2018-08-16T11:33:37.371Z,44.03
2018-08-16T11:35:30.323Z,43.64
2018-08-16T11:36:30.324Z,43.44
2018-08-16T11:38:23.283Z,43.35
2018-08-16T11:39:23.279Z,43.64
2018-08-16T11:41:16.202Z,43.08
2018-08-16T11:42:16.232Z,44.15
2018-08-16T11:44:09.180Z,43.76
2018-08-16T11:45:09.184Z,43.10
2018-08-16T11:47:02.110Z,42.80
2018-08-16T11:48:02.138Z,42.22
2018-08-16T11:49:55.090Z,42.02
2018-08-16T11:50:55.143Z,42.22
2018-08-16T11:52:48.017Z,43.00
2018-08-16T11:53:48.054Z,42.61
2018-08-16T11:55:40.997Z,42.51
2018-08-16T11:56:41.003Z,42.12
2018-08-16T11:58:33.930Z,42.14
2018-08-16T11:59:33.959Z,42.44
2018-08-16T12:01:26.900Z,41.27
2018-08-16T12:02:26.909Z,41.58
2018-08-16T12:04:19.860Z,42.07
2018-08-16T12:05:19.868Z,40.88
2018-08-16T12:07:12.791Z,41.17
2018-08-16T12:08:12.819Z,41.56
2018-08-16T12:10:05.823Z,41.17
2018-08-16T12:11:05.773Z,41.28
2018-08-16T12:12:58.697Z,41.19
2018-08-16T12:13:58.727Z,40.99
2018-08-16T12:15:51.672Z,40.70
2018-08-16T12:16:51.681Z,41.56
2018-08-16T12:18:44.733Z,41.56
2018-08-16T12:19:44.635Z,42.44
2018-08-16T12:21:37.584Z,41.66
2018-08-16T12:22:37.587Z,41.46
2018-08-16T12:24:30.540Z,41.87
2018-08-16T12:25:30.543Z,42.16
2018-08-16T12:27:23.472Z,40.92
2018-08-16T12:28:23.508Z,39.75
2018-08-16T12:30:16.444Z,40.14
2018-08-16T12:31:16.453Z,39.84
2018-08-16T12:33:09.380Z,38.87
2018-08-16T12:34:09.411Z,39.26
2018-08-16T12:36:02.355Z,39.65
2018-08-16T12:37:02.363Z,39.84
2018-08-16T12:38:55.289Z,39.45
2018-08-16T12:39:55.319Z,39.45
2018-08-16T12:41:48.264Z,39.37
2018-08-16T12:42:48.331Z,39.67
2018-08-16T12:44:41.225Z,38.49
2018-08-16T12:45:41.232Z,38.59
2018-08-16T12:47:34.175Z,39.08
2018-08-16T12:48:34.185Z,38.79
2018-08-16T12:50:27.136Z,38.32
2018-08-16T12:51:27.140Z,37.63
2018-08-16T12:53:20.069Z,38.22
2018-08-16T12:54:20.095Z,37.83
2018-08-16T12:56:13.041Z,37.54
2018-08-16T12:57:13.049Z,37.83
2018-08-16T12:59:05.979Z,37.22
2018-08-16T13:00:06.006Z,37.62
2018-08-16T13:01:59.031Z,38.96
2018-08-16T13:02:58.962Z,39.45
2018-08-16T13:04:51.914Z,38.67
2018-08-16T13:05:51.918Z,39.36
2018-08-16T13:07:44.844Z,38.18
2018-08-16T13:08:44.898Z,37.99
2018-08-16T13:10:37.824Z,38.57
2018-08-16T13:11:37.838Z,38.57
2018-08-16T13:13:30.755Z,38.98
2018-08-16T13:14:30.784Z,38.59
2018-08-16T13:16:23.781Z,37.62
2018-08-16T13:17:23.742Z,37.91
2018-08-16T13:19:16.665Z,37.60
2018-08-16T13:20:16.698Z,38.67
2018-08-16T13:22:09.648Z,38.38
2018-08-16T13:23:09.654Z,39.45
2018-08-16T13:25:02.607Z,39.16
2018-08-16T13:26:02.609Z,39.45
2018-08-16T13:27:55.537Z,39.06
2018-08-16T13:28:55.565Z,39.47
2018-08-16T13:30:48.520Z,38.49
2018-08-16T13:31:48.523Z,38.20
2018-08-16T13:33:41.448Z,38.30
2018-08-16T13:34:41.479Z,38.59
2018-08-16T13:36:34.431Z,37.32
2018-08-16T13:37:34.436Z,37.93
2018-08-16T13:39:27.363Z,36.75
2018-08-16T13:40:27.393Z,37.24
2018-08-16T13:42:20.406Z,36.77
2018-08-16T13:43:20.351Z,36.87
2018-08-16T13:45:13.303Z,37.08
2018-08-16T13:46:13.310Z,36.67
2018-08-16T13:48:06.243Z,36.77
2018-08-16T13:49:06.274Z,36.67
2018-08-16T13:50:59.224Z,36.47
2018-08-16T13:51:59.233Z,36.38
2018-08-16T13:53:52.159Z,36.07
2018-08-16T13:54:52.205Z,36.34
2018-08-16T13:56:45.136Z,37.41
2018-08-16T13:57:45.146Z,37.41
2018-08-16T13:59:38.076Z,37.12
2018-08-16T14:00:38.152Z,37.32
2018-08-16T14:02:31.058Z,37.14
2018-08-16T14:03:31.064Z,37.43
2018-08-16T14:05:24.016Z,36.96
2018-08-16T14:06:24.025Z,36.96
2018-08-16T14:08:16.954Z,36.79
2018-08-16T14:09:16.979Z,36.79
2018-08-16T14:11:09.925Z,36.20
2018-08-16T14:12:09.937Z,36.10
2018-08-16T14:14:02.868Z,35.61
2018-08-16T14:15:02.899Z,34.83
2018-08-16T14:16:55.852Z,35.61
2018-08-16T14:17:55.857Z,35.42
2018-08-16T14:19:48.786Z,35.61
2018-08-16T14:20:48.813Z,35.61
2018-08-16T14:22:41.767Z,35.91
2018-08-16T14:23:41.776Z,36.10
2018-08-16T14:25:34.726Z,34.93
2018-08-16T14:26:34.734Z,34.81
2018-08-16T14:28:27.663Z,35.79
2018-08-16T14:29:27.693Z,36.26
2018-08-16T14:31:20.645Z,36.87
2018-08-16T14:32:20.687Z,35.99
2018-08-16T14:34:13.741Z,35.89
2018-08-16T14:35:13.772Z,35.89
2018-08-16T14:37:06.725Z,35.71
2018-08-16T14:38:06.734Z,35.81
2018-08-16T14:39:59.658Z,35.61
2018-08-16T14:40:59.689Z,35.79
2018-08-16T14:42:52.642Z,36.18
2018-08-16T14:43:52.647Z,36.18
2018-08-16T14:45:45.605Z,35.69
2018-08-16T14:46:45.609Z,35.99
2018-08-16T14:48:38.531Z,35.99
2018-08-16T14:49:38.562Z,35.69
2018-08-16T14:51:31.558Z,36.18
2018-08-16T14:52:31.523Z,36.08
2018-08-16T14:54:24.451Z,35.60
2018-08-16T14:55:24.480Z,35.99
2018-08-16T14:57:17.433Z,36.08
2018-08-16T14:58:17.439Z,36.20
2018-08-16T15:00:10.365Z,35.99
2018-08-16T15:01:10.396Z,35.30
2018-08-16T15:03:03.341Z,36.08
2018-08-16T15:04:03.352Z,36.16
2018-08-16T15:05:56.306Z,36.55
2018-08-16T15:06:56.313Z,36.46
2018-08-16T15:08:49.245Z,36.46
2018-08-16T15:09:49.276Z,36.38
2018-08-16T15:11:43.219Z,36.18
2018-08-16T15:12:43.229Z,36.18
2018-08-16T15:14:36.160Z,36.08
2018-08-16T15:15:36.187Z,36.28
2018-08-16T15:17:29.146Z,36.18
2018-08-16T15:18:29.145Z,35.89
2018-08-16T15:20:23.080Z,36.46
2018-08-16T15:21:23.102Z,36.07
2018-08-16T15:23:16.062Z,36.94
2018-08-16T15:24:16.062Z,36.65
2018-08-16T15:26:09.013Z,36.46
2018-08-16T15:27:09.018Z,36.34
2018-08-16T15:29:01.946Z,37.12
2018-08-16T15:30:01.978Z,36.83
2018-08-16T15:31:54.930Z,36.83
2018-08-16T15:32:54.934Z,37.22
2018-08-16T15:34:47.871Z,37.40
2018-08-16T15:35:47.902Z,37.48
2018-08-16T15:37:40.857Z,37.57
2018-08-16T15:38:40.862Z,37.48
2018-08-16T15:40:33.789Z,38.24
2018-08-16T15:41:33.821Z,38.14
2018-08-16T15:43:26.773Z,38.73
2018-08-16T15:44:26.781Z,38.53
2018-08-16T15:46:19.730Z,38.26
2018-08-16T15:47:19.738Z,37.89
2018-08-16T15:49:12.670Z,38.18
2018-08-16T15:50:12.698Z,37.79
2018-08-16T15:52:05.644Z,37.48
2018-08-16T15:53:05.654Z,37.38
2018-08-16T15:54:58.588Z,37.77
2018-08-16T15:55:58.612Z,37.96
2018-08-16T15:57:51.564Z,37.87
2018-08-16T15:58:51.568Z,37.55
2018-08-16T16:00:44.717Z,37.96
2018-08-16T16:01:44.748Z,37.38
2018-08-16T16:03:37.700Z,37.85
2018-08-16T16:04:37.706Z,38.34
2018-08-16T16:06:30.839Z,38.24
2018-08-16T16:07:30.660Z,38.16
2018-08-16T16:09:24.083Z,37.48
2018-08-16T16:10:24.109Z,37.96
2018-08-16T16:12:17.267Z,37.77
2018-08-16T16:13:17.277Z,37.57
2018-08-16T16:15:11.202Z,38.06
2018-08-16T16:16:11.231Z,38.06
2018-08-16T16:18:04.188Z,37.67
2018-08-16T16:19:04.187Z,37.79
2018-08-16T16:20:57.119Z,36.90
2018-08-16T16:21:57.150Z,37.09
2018-08-16T16:23:50.095Z,36.99
2018-08-16T16:24:50.172Z,37.09
2018-08-16T16:26:43.057Z,37.29
2018-08-16T16:27:43.060Z,37.48
2018-08-16T16:29:36.201Z,37.38
2018-08-16T16:30:36.236Z,37.09
2018-08-16T16:32:29.185Z,36.98
2018-08-16T16:33:29.192Z,37.37
2018-08-16T16:35:22.119Z,36.96
2018-08-16T16:36:22.149Z,37.63
2018-08-16T16:38:15.145Z,37.35
2018-08-16T16:39:15.110Z,37.45
2018-08-16T16:41:08.034Z,37.73
2018-08-16T16:42:08.066Z,37.73
2018-08-16T16:44:01.014Z,37.27
2018-08-16T16:45:01.080Z,37.83
2018-08-16T16:46:54.966Z,37.37
2018-08-16T16:47:54.972Z,37.17
2018-08-16T16:49:47.948Z,37.27
2018-08-16T16:50:47.926Z,37.27
2018-08-16T16:52:40.879Z,36.88
2018-08-16T16:53:40.928Z,37.17
2018-08-16T16:55:33.818Z,36.98
2018-08-16T16:56:33.844Z,37.17
2018-08-16T16:58:26.850Z,37.37
2018-08-16T16:59:26.801Z,37.37
2018-08-16T17:01:19.727Z,37.37
2018-08-16T17:02:19.753Z,37.27
2018-08-16T17:04:12.797Z,37.55
2018-08-16T17:05:12.710Z,37.55
2018-08-16T17:07:05.653Z,38.22
2018-08-16T17:08:05.662Z,38.42
2018-08-16T17:09:58.592Z,38.98
2018-08-16T17:10:58.618Z,38.59
2018-08-16T17:12:51.569Z,38.98
2018-08-16T17:13:51.574Z,38.69
2018-08-16T17:15:44.499Z,39.47
2018-08-16T17:16:44.527Z,39.84
2018-08-16T17:18:37.481Z,40.81
2018-08-16T17:19:37.491Z,40.52
2018-08-16T17:21:30.416Z,42.08
2018-08-16T17:22:30.445Z,42.47
2018-08-16T17:24:23.394Z,42.47
2018-08-16T17:25:23.399Z,42.57
2018-08-16T17:27:16.357Z,42.35
2018-08-16T17:28:16.354Z,42.35
2018-08-16T17:30:09.464Z,42.47
2018-08-16T17:31:09.494Z,42.94
2018-08-16T17:33:02.437Z,42.74
2018-08-16T17:34:02.445Z,43.13
2018-08-16T17:35:55.373Z,43.52
2018-08-16T17:36:55.509Z,43.04
2018-08-16T17:38:48.362Z,43.91
2018-08-16T17:39:48.369Z,43.62
2018-08-16T17:41:41.297Z,43.52
2018-08-16T17:42:41.322Z,43.91
2018-08-16T17:44:34.275Z,44.10
2018-08-16T17:45:34.276Z,44.10
2018-08-16T17:47:27.223Z,44.18
2018-08-16T17:48:27.232Z,44.38
2018-08-16T17:50:20.170Z,44.48
2018-08-16T17:51:20.180Z,44.67
2018-08-16T17:53:13.320Z,45.06
2018-08-16T17:54:13.329Z,44.96
2018-08-16T17:56:06.253Z,44.65
2018-08-16T17:57:06.339Z,45.23
2018-08-16T17:58:59.226Z,45.42
2018-08-16T17:59:59.234Z,45.32
2018-08-16T18:01:52.160Z,45.62
2018-08-16T18:02:52.232Z,45.72
2018-08-16T18:04:45.138Z,45.72
2018-08-16T18:05:45.158Z,46.01
2018-08-16T18:07:38.062Z,46.47
2018-08-16T18:08:38.097Z,45.98
2018-08-16T18:10:31.032Z,46.57
2018-08-16T18:11:31.040Z,46.57
2018-08-16T18:13:23.983Z,47.05
2018-08-16T18:14:23.991Z,47.05
2018-08-16T18:16:16.915Z,46.96
2018-08-16T18:17:16.943Z,46.96
2018-08-16T18:19:09.882Z,47.23
2018-08-16T18:20:09.891Z,47.34
2018-08-16T18:22:02.812Z,47.61
2018-08-16T18:23:02.841Z,47.61
2018-08-16T18:24:55.790Z,48.57
2018-08-16T18:25:55.793Z,48.57
2018-08-16T18:27:48.717Z,48.75
2018-08-16T18:28:48.747Z,49.15
2018-08-16T18:30:41.685Z,49.24
2018-08-16T18:31:41.692Z,49.34
2018-08-16T18:33:34.636Z,49.54